Portada
METAR-TAF:

METAR-TAF

Aeroports :

Base aèria

Selon de Provença, França

latitud: 43-36N, longitud: 005-06E, altitud: 59 m

Observació

L'informe es va fer fa 30 minuts, a les 15:00 UTC
Vent 17 kt del Nord/Nord-Oest amb ràfegues de 31 kt
Temperatura 8°C
Humitat 57%
Pressió 1020 hPa
Visibilitat 10 km o més
sense núvols per sota de 1500 mi sense presència de cumulonimbus.

METAR: LFMY 101500Z AUTO 33017G31KT CAVOK 08/M00 Q1020 NOSIG

Hora: 16:30 (15:30 UTC)

Pronòstic

L'informe es va fer fa 1 hora i 30 minuts, a les 14:00 UTC
Pronòstic vàlid del 10 a les 15 UTC al 11 a les 15 UTC
Vent 17 kt del Nord-Oest amb ràfegues de 27 kt
Visibilitat 10 km o més
sense núvols per sota de 1500 mi sense presència de cumulonimbus.
Evolucionant progressivament
l' 10 a les 18 UTC al 10 a les 20 UTC
Vent 5 kt del Est
Evolucionant progressivament
l' 11 a les 13 UTC al 11 a les 15 UTC
Vent 12 kt del Nord/Nord-Oest

TAF: LFMY 101400Z 1015/1115 32017G27KT CAVOK BECMG 1018/1020 09005KT BECMG 1113/1115 34012KT

Observacions i pronòstics meteorològics de més de 4000 aeroports (METAR i TAF).

Les estacions disponibles són els punts grocs i vermells al mapa.

Posi el ratolí al punt desitjat per veure el nom de l'estació.

Feu clic per veure les observacions i els pronòstics meteorològics.

Per canviar el mapa: feu clic els botons verds amb una creu de color negre per apropar; al botó verd amb un guió per allunyar la imatge; o en les fletxes verdes per a mapes adjacents.


METAR-TAF: